Terminal Aerodrome Forecast
Issued by NWS

Home | Current Version | Previous Version | Text Only | Print | Product List | Glossary On
Versions: 1 2 3 4 5 6 7 8 9 10 11 12 13 14 15 16 17 18 19 20 21 22 23 24
000
FTUS41 KBTV 222320
TAFMSS
TAF
KMSS 222320Z 2300/2324 05008KT 6SM BR OVC035
     FM230800 05007KT P6SM -FZDZSN OVC015
     FM231500 06007KT 5SM -SNRA BR OVC020
     FM231600 07009KT 5SM -RA BR OVC030=

USA.gov is the U.S. government's official web portal to all federal, state and local government web resources and services.